Time;durP1;ratioP1;P1;durP2;ratioP2;P2;SDS_P1;SDS_P2;PMS_P1;PMS_P2;Temp;Humidity;BMP_temperature;BMP_pressure;BME280_temperature;BME280_humidity;BME280_pressure;Samples;Min_cycle;Max_cycle;Signal;HPM_P1;HPM_P2
2022/08/29 00:00:39;;;;;;;10.47;9.43;;;18.30;99.90;;;;;;5058912;28;20440;-82
2022/08/29 00:03:06;;;;;;;11.33;9.37;;;18.30;99.90;;;;;;5059212;28;20471;-83
2022/08/29 00:05:35;;;;;;;10.60;9.60;;;18.30;99.90;;;;;;5060718;28;20459;-82
2022/08/29 00:08:05;;;;;;;9.83;9.13;;;18.30;99.90;;;;;;5062181;28;20456;-82
2022/08/29 00:10:33;;;;;;;9.70;8.70;;;18.20;99.90;;;;;;5062383;28;20483;-82
2022/08/29 00:13:01;;;;;;;9.70;8.80;;;18.20;99.90;;;;;;5062504;28;20468;-82
2022/08/29 00:15:28;;;;;;;10.03;9.23;;;18.20;99.90;;;;;;5061459;28;20457;-84
2022/08/29 00:17:54;;;;;;;10.70;9.70;;;18.20;99.90;;;;;;5061936;28;20454;-82
2022/08/29 00:20:25;;;;;;;11.00;10.00;;;18.10;99.90;;;;;;5061961;28;20461;-82
2022/08/29 00:22:52;;;;;;;9.13;8.40;;;18.10;99.90;;;;;;5061716;28;20472;-82
2022/08/29 00:25:21;;;;;;;10.70;9.80;;;18.00;99.90;;;;;;5061726;28;20451;-82
2022/08/29 00:27:48;;;;;;;9.23;8.47;;;18.00;99.90;;;;;;5061751;28;20459;-81
2022/08/29 00:30:15;;;;;;;9.97;9.17;;;18.00;99.90;;;;;;5061653;28;20514;-82
2022/08/29 00:32:42;;;;;;;9.50;8.70;;;18.00;99.90;;;;;;5062127;28;20480;-82
2022/08/29 00:35:12;;;;;;;10.00;8.67;;;17.90;99.90;;;;;;5065414;28;20518;-82
2022/08/29 00:37:39;;;;;;;10.83;8.43;;;17.90;99.90;;;;;;5069354;28;20448;-83
2022/08/29 00:40:09;;;;;;;8.77;7.97;;;17.90;99.90;;;;;;5070435;28;20448;-83
2022/08/29 00:42:38;;;;;;;9.10;8.20;;;17.90;99.90;;;;;;5070001;28;20467;-82
2022/08/29 00:45:07;;;;;;;9.93;8.77;;;17.80;99.90;;;;;;5069655;28;20459;-82
2022/08/29 00:47:38;;;;;;;7.87;7.07;;;17.80;99.90;;;;;;5069749;28;20458;-80
2022/08/29 00:50:07;;;;;;;9.33;8.37;;;17.70;99.90;;;;;;5069089;28;20494;-83
2022/08/29 00:52:38;;;;;;;7.73;7.13;;;17.70;99.90;;;;;;5069503;28;20485;-84
2022/08/29 00:55:11;;;;;;;8.57;7.77;;;17.70;99.90;;;;;;5070280;28;20489;-83
2022/08/29 00:57:42;;;;;;;11.63;8.17;;;17.70;99.90;;;;;;5069688;28;20459;-83
2022/08/29 01:00:10;;;;;;;8.60;7.93;;;17.70;99.90;;;;;;5069396;28;20453;-83
2022/08/29 01:02:38;;;;;;;8.80;7.90;;;17.60;99.90;;;;;;5069646;28;20474;-83
2022/08/29 01:08:28;;;;;;;9.43;8.63;;;17.60;99.90;;;;;;5069513;28;20402;-82
2022/08/29 01:13:45;;;;;;;8.03;7.43;;;17.50;99.90;;;;;;5070066;28;20488;-83
2022/08/29 01:16:13;;;;;;;8.17;7.47;;;17.50;99.90;;;;;;5069581;28;20470;-83
2022/08/29 01:18:42;;;;;;;9.27;7.90;;;17.50;99.90;;;;;;5069255;28;20450;-84
2022/08/29 01:21:21;;;;;;;8.80;8.00;;;17.40;99.90;;;;;;5068907;28;20489;-82
2022/08/29 01:23:57;;;;;;;8.63;7.90;;;17.40;99.90;;;;;;5069355;28;20442;-82
2022/08/29 01:26:27;;;;;;;7.90;7.20;;;17.40;99.90;;;;;;5069078;28;20492;-82
2022/08/29 01:28:54;;;;;;;9.07;8.27;;;17.40;99.90;;;;;;5068975;28;20478;-82
2022/08/29 01:31:23;;;;;;;9.93;7.97;;;17.40;99.90;;;;;;5068216;28;20492;-82
2022/08/29 01:33:55;;;;;;;8.73;8.03;;;17.40;99.90;;;;;;5069035;28;20450;-81
2022/08/29 01:36:24;;;;;;;8.80;8.10;;;17.30;99.90;;;;;;5068387;28;20519;-82
2022/08/29 01:38:51;;;;;;;10.03;9.07;;;17.30;99.90;;;;;;5068894;28;20455;-83
2022/08/29 01:41:19;;;;;;;8.80;8.10;;;17.30;99.90;;;;;;5068739;28;20455;-83
2022/08/29 01:43:51;;;;;;;9.10;8.20;;;17.30;99.90;;;;;;5068604;28;20469;-82
2022/08/29 01:46:21;;;;;;;11.67;9.70;;;17.20;99.90;;;;;;5068295;28;20459;-83
2022/08/29 01:48:48;;;;;;;9.40;8.70;;;17.20;99.90;;;;;;5073224;28;20434;-80
2022/08/29 01:51:15;;;;;;;9.83;8.93;;;17.20;99.90;;;;;;5075517;28;20474;-79
2022/08/29 01:53:42;;;;;;;8.77;7.97;;;17.20;99.90;;;;;;5070817;28;20449;-82
2022/08/29 01:56:10;;;;;;;9.77;8.27;;;17.20;99.90;;;;;;5069354;28;20449;-83
2022/08/29 01:58:37;;;;;;;8.60;7.90;;;17.20;99.90;;;;;;5068495;28;20460;-83
2022/08/29 02:01:06;;;;;;;9.93;9.03;;;17.20;99.90;;;;;;5070059;28;20469;-83
2022/08/29 02:03:33;;;;;;;9.73;8.87;;;17.20;99.90;;;;;;5072923;28;20456;-82
2022/08/29 02:06:00;;;;;;;9.97;9.07;;;17.20;99.90;;;;;;5073497;28;20461;-83
2022/08/29 02:08:27;;;;;;;9.87;8.70;;;17.10;99.90;;;;;;5071024;28;20449;-83
2022/08/29 02:10:54;;;;;;;9.80;8.90;;;17.10;99.90;;;;;;5072253;28;20480;-84
2022/08/29 02:13:22;;;;;;;10.17;9.27;;;17.10;99.90;;;;;;5072529;28;20479;-82
2022/08/29 02:15:49;;;;;;;9.33;8.40;;;17.10;99.90;;;;;;5073099;28;20458;-83
2022/08/29 02:18:17;;;;;;;9.20;8.30;;;17.00;99.90;;;;;;5073029;28;20454;-83
2022/08/29 02:20:45;;;;;;;10.80;9.80;;;17.00;99.90;;;;;;5072287;28;20447;-84
2022/08/29 02:23:12;;;;;;;9.37;7.87;;;17.00;99.90;;;;;;5072360;28;20484;-82
2022/08/29 02:25:41;;;;;;;10.20;7.70;;;17.00;99.90;;;;;;5073162;28;20447;-83
2022/08/29 02:28:10;;;;;;;8.20;7.50;;;16.90;99.90;;;;;;5072297;28;20453;-83
2022/08/29 02:30:38;;;;;;;9.17;8.37;;;16.90;99.90;;;;;;5072534;28;20477;-82
2022/08/29 02:33:04;;;;;;;7.90;7.20;;;16.90;99.90;;;;;;5065882;28;20470;-83
2022/08/29 02:35:33;;;;;;;10.10;9.10;;;16.90;99.90;;;;;;5061022;28;20477;-83
2022/08/29 02:38:00;;;;;;;10.73;9.73;;;16.80;99.90;;;;;;5060182;28;20449;-83
2022/08/29 02:40:27;;;;;;;10.87;9.77;;;16.70;99.90;;;;;;5061220;28;20888;-83
2022/08/29 02:42:54;;;;;;;9.67;8.77;;;16.70;99.90;;;;;;5060520;28;20470;-83
2022/08/29 02:45:21;;;;;;;9.13;8.20;;;16.70;99.90;;;;;;5060802;28;20441;-83
2022/08/29 02:47:48;;;;;;;10.73;9.83;;;16.70;99.90;;;;;;5060412;28;20448;-82
2022/08/29 02:50:15;;;;;;;14.53;9.53;;;16.70;99.90;;;;;;5060823;28;20446;-83
2022/08/29 02:52:44;;;;;;;10.50;9.40;;;16.70;99.90;;;;;;5060891;28;20474;-83
2022/08/29 02:55:14;;;;;;;10.77;9.77;;;16.70;99.90;;;;;;5060660;28;21057;-83
2022/08/29 02:57:41;;;;;;;11.50;10.43;;;16.60;99.90;;;;;;5060014;28;20868;-83
2022/08/29 03:00:11;;;;;;;12.40;11.30;;;16.60;99.90;;;;;;5060017;28;20454;-83
2022/08/29 03:02:38;;;;;;;11.57;10.43;;;16.50;99.90;;;;;;5059812;28;20477;-83
2022/08/29 03:05:05;;;;;;;12.63;11.43;;;16.50;99.90;;;;;;5059662;28;20450;-83
2022/08/29 03:07:32;;;;;;;10.67;9.57;;;16.50;99.90;;;;;;5060234;28;20453;-83
2022/08/29 03:10:00;;;;;;;10.70;9.80;;;16.50;99.90;;;;;;5059813;28;20450;-83
2022/08/29 03:12:28;;;;;;;9.00;8.07;;;16.40;99.90;;;;;;5059609;28;20489;-83
2022/08/29 03:14:55;;;;;;;8.90;8.10;;;16.40;99.90;;;;;;5060259;28;20441;-83
2022/08/29 03:17:21;;;;;;;10.40;9.40;;;16.40;99.90;;;;;;5059766;28;20455;-83
2022/08/29 03:19:48;;;;;;;9.80;8.90;;;16.40;99.90;;;;;;5059583;28;20823;-83
2022/08/29 03:22:15;;;;;;;8.73;7.97;;;16.40;99.90;;;;;;5059605;28;20461;-83
2022/08/29 03:24:42;;;;;;;9.23;8.43;;;16.40;99.90;;;;;;5059303;28;20502;-83
2022/08/29 03:27:10;;;;;;;9.03;8.23;;;16.40;99.90;;;;;;5059805;28;20450;-82
2022/08/29 03:29:37;;;;;;;7.40;6.70;;;16.40;99.90;;;;;;5059825;28;20457;-83
2022/08/29 03:32:04;;;;;;;8.40;7.60;;;16.40;99.90;;;;;;5059505;28;20550;-83
2022/08/29 03:34:31;;;;;;;8.77;8.07;;;16.40;99.90;;;;;;5059425;28;20459;-83
2022/08/29 03:36:58;;;;;;;8.67;7.87;;;16.30;99.90;;;;;;5059641;28;20454;-83
2022/08/29 03:39:25;;;;;;;8.90;8.00;;;16.30;99.90;;;;;;5059219;28;20457;-82
2022/08/29 03:41:53;;;;;;;8.47;7.63;;;16.30;99.90;;;;;;5059836;28;20470;-83
2022/08/29 03:44:21;;;;;;;9.53;8.70;;;16.30;99.90;;;;;;5059262;28;20493;-83
2022/08/29 03:46:48;;;;;;;9.93;8.87;;;16.30;99.90;;;;;;5058997;28;20450;-83
2022/08/29 03:49:15;;;;;;;8.33;7.63;;;16.30;99.90;;;;;;5058894;28;20452;-83
2022/08/29 03:51:42;;;;;;;9.80;9.00;;;16.20;99.90;;;;;;5058669;28;20527;-83
2022/08/29 03:54:09;;;;;;;10.03;9.07;;;16.20;99.90;;;;;;5058890;28;20472;-83
2022/08/29 03:56:36;;;;;;;9.13;8.33;;;16.20;99.90;;;;;;5059515;28;20444;-82
2022/08/29 03:59:02;;;;;;;9.03;8.13;;;16.20;99.90;;;;;;5058672;28;20450;-83
2022/08/29 04:01:30;;;;;;;8.97;8.07;;;16.20;99.90;;;;;;5058927;28;21157;-83
2022/08/29 04:03:58;;;;;;;9.90;9.00;;;16.20;99.90;;;;;;5058707;28;21163;-83
2022/08/29 04:06:27;;;;;;;9.20;8.17;;;16.10;99.90;;;;;;5059160;28;20445;-83
2022/08/29 04:08:54;;;;;;;9.30;8.60;;;16.10;99.90;;;;;;5059913;28;20556;-82
2022/08/29 04:11:23;;;;;;;10.20;9.30;;;16.10;99.90;;;;;;5072344;28;20501;-80
2022/08/29 04:13:50;;;;;;;10.43;9.43;;;16.10;99.90;;;;;;5073581;28;20503;-83
2022/08/29 04:16:19;;;;;;;9.50;8.60;;;16.10;99.90;;;;;;5061383;28;20445;-82
2022/08/29 04:18:47;;;;;;;9.17;8.37;;;16.10;99.90;;;;;;5059644;28;20479;-83
2022/08/29 04:21:14;;;;;;;10.17;9.17;;;16.00;99.90;;;;;;5060701;28;20456;-83
2022/08/29 04:23:41;;;;;;;9.67;8.80;;;16.00;99.90;;;;;;5059352;28;20453;-82
2022/08/29 04:26:14;;;;;;;9.77;8.87;;;16.00;99.90;;;;;;5059254;28;20446;-82
2022/08/29 04:28:40;;;;;;;10.00;9.10;;;16.00;99.90;;;;;;5058351;28;20459;-85
2022/08/29 04:31:12;;;;;;;12.77;11.67;;;16.00;99.90;;;;;;5059556;28;20505;-84
2022/08/29 04:33:40;;;;;;;22.57;20.60;;;16.00;99.90;;;;;;5060543;28;20484;-83
2022/08/29 04:36:08;;;;;;;15.97;14.40;;;16.00;99.90;;;;;;5060212;28;20445;-81
2022/08/29 04:38:34;;;;;;;11.43;10.43;;;16.10;99.90;;;;;;5060628;28;20939;-82
2022/08/29 04:41:05;;;;;;;10.37;9.37;;;16.10;99.90;;;;;;5060247;28;20437;-82
2022/08/29 04:43:32;;;;;;;9.77;8.87;;;16.10;99.90;;;;;;5059783;28;20453;-82
2022/08/29 04:45:59;;;;;;;9.77;8.87;;;16.00;99.90;;;;;;5059633;28;20454;-82
2022/08/29 04:48:26;;;;;;;11.13;9.77;;;16.00;99.90;;;;;;5060796;28;20452;-82
2022/08/29 04:50:55;;;;;;;11.93;9.70;;;16.00;99.90;;;;;;5059711;28;20464;-83
2022/08/29 04:53:23;;;;;;;9.30;8.60;;;16.00;99.90;;;;;;5059989;28;20531;-82
2022/08/29 04:55:56;;;;;;;10.87;9.67;;;16.00;99.90;;;;;;5059707;28;20457;-82
2022/08/29 04:58:24;;;;;;;9.43;8.63;;;16.00;99.90;;;;;;5059425;28;20457;-82
2022/08/29 05:00:51;;;;;;;9.20;8.30;;;16.00;99.90;;;;;;5060849;28;20474;-82
2022/08/29 05:03:17;;;;;;;10.27;9.27;;;16.00;99.90;;;;;;5061108;28;20852;-82
2022/08/29 05:05:44;;;;;;;10.40;9.40;;;16.00;99.90;;;;;;5061431;28;20866;-82
2022/08/29 05:08:11;;;;;;;9.73;8.93;;;16.00;99.90;;;;;;5060763;28;20449;-82
2022/08/29 05:10:39;;;;;;;9.47;8.50;;;16.10;99.90;;;;;;5060805;28;20460;-82
2022/08/29 05:13:06;;;;;;;9.90;8.90;;;16.00;99.90;;;;;;5061225;28;20803;-82
2022/08/29 05:15:32;;;;;;;9.83;8.93;;;16.10;99.90;;;;;;5061148;28;20448;-82
2022/08/29 05:17:59;;;;;;;9.87;8.93;;;16.10;99.90;;;;;;5060879;28;20451;-82
2022/08/29 05:20:26;;;;;;;11.40;8.57;;;16.10;99.90;;;;;;5060838;28;20464;-82
2022/08/29 05:22:53;;;;;;;11.60;10.60;;;16.10;99.90;;;;;;5060673;28;20859;-81
2022/08/29 05:25:19;;;;;;;9.87;9.17;;;16.10;99.90;;;;;;5061344;28;20445;-82
2022/08/29 05:27:48;;;;;;;10.30;8.90;;;16.20;99.90;;;;;;5059958;28;20488;-82
2022/08/29 05:30:15;;;;;;;9.97;9.07;;;16.20;99.90;;;;;;5060864;28;20460;-82
2022/08/29 05:32:41;;;;;;;10.73;9.73;;;16.20;99.90;;;;;;5060822;28;20564;-82
2022/08/29 05:35:09;;;;;;;10.70;9.10;;;16.30;99.90;;;;;;5063035;28;20449;-81
2022/08/29 05:37:37;;;;;;;10.10;9.20;;;16.30;99.90;;;;;;5067539;28;20471;-81
2022/08/29 05:40:05;;;;;;;10.40;9.40;;;16.30;99.90;;;;;;5068384;28;20495;-82
2022/08/29 05:42:32;;;;;;;10.47;8.60;;;16.40;99.90;;;;;;5067746;28;20532;-81
2022/08/29 05:45:00;;;;;;;11.53;9.60;;;16.40;99.90;;;;;;5067305;28;20464;-82
2022/08/29 05:47:26;;;;;;;11.63;10.63;;;16.40;99.90;;;;;;5067391;28;21005;-82
2022/08/29 05:49:53;;;;;;;11.97;10.30;;;16.50;99.90;;;;;;5068813;28;20450;-82
2022/08/29 05:52:20;;;;;;;12.47;10.67;;;16.50;99.90;;;;;;5068553;28;20845;-82
2022/08/29 05:54:48;;;;;;;12.13;10.80;;;16.60;99.90;;;;;;5068766;28;20444;-82
2022/08/29 05:57:17;;;;;;;13.87;11.73;;;16.60;99.90;;;;;;5068960;28;20460;-82
2022/08/29 05:59:44;;;;;;;13.77;11.50;;;16.70;99.90;;;;;;5068541;28;20458;-82
2022/08/29 06:02:13;;;;;;;13.40;12.27;;;16.70;99.90;;;;;;5069031;28;20476;-82
2022/08/29 06:04:39;;;;;;;12.10;11.00;;;16.80;99.90;;;;;;5069083;28;20457;-82
2022/08/29 06:07:07;;;;;;;13.47;12.17;;;16.80;99.90;;;;;;5068980;28;20447;-82
2022/08/29 06:09:34;;;;;;;14.00;11.47;;;16.90;99.90;;;;;;5068307;28;20951;-82
2022/08/29 06:12:01;;;;;;;12.10;11.00;;;17.00;99.90;;;;;;5068987;28;20852;-82
2022/08/29 06:14:27;;;;;;;12.90;11.30;;;17.10;99.90;;;;;;5069414;28;20453;-82
2022/08/29 06:16:55;;;;;;;14.83;11.83;;;17.10;99.90;;;;;;5069905;28;20454;-82
2022/08/29 06:19:24;;;;;;;13.30;12.03;;;17.20;99.90;;;;;;5069071;28;20528;-82
2022/08/29 06:21:51;;;;;;;13.87;12.57;;;17.30;99.90;;;;;;5069857;28;20474;-82
2022/08/29 06:24:18;;;;;;;12.50;11.40;;;17.40;99.90;;;;;;5070106;28;20460;-82
2022/08/29 06:26:45;;;;;;;14.20;12.80;;;17.50;99.90;;;;;;5069977;28;20809;-82
2022/08/29 06:29:13;;;;;;;15.63;14.00;;;17.60;99.90;;;;;;5070034;28;20454;-82
2022/08/29 06:31:40;;;;;;;15.33;13.83;;;17.70;99.90;;;;;;5069550;28;20487;-81
2022/08/29 06:34:08;;;;;;;15.30;13.73;;;17.70;99.90;;;;;;5079654;28;20461;-84
2022/08/29 06:36:37;;;;;;;26.17;22.30;;;17.80;99.90;;;;;;5079442;28;20477;-85
2022/08/29 06:39:06;;;;;;;122.23;110.50;;;17.90;99.90;;;;;;5068816;28;20465;-87
2022/08/29 06:41:34;;;;;;;17.03;15.33;;;18.00;99.90;;;;;;5065622;28;20467;-84
2022/08/29 06:44:01;;;;;;;22.43;13.20;;;18.20;99.90;;;;;;5064806;28;20462;-83
2022/08/29 06:46:31;;;;;;;20.03;15.30;;;18.30;99.90;;;;;;5066235;28;20454;-84
2022/08/29 06:48:59;;;;;;;85.03;76.40;;;18.30;99.90;;;;;;5063620;28;20447;-85
2022/08/29 06:51:31;;;;;;;54.03;48.47;;;18.40;99.90;;;;;;5064082;28;21000;-86
2022/08/29 06:53:59;;;;;;;68.90;62.27;;;18.50;99.90;;;;;;5064208;28;20463;-85
2022/08/29 06:56:27;;;;;;;25.40;23.23;;;18.60;99.90;;;;;;5064419;28;20455;-86
2022/08/29 06:58:53;;;;;;;27.33;24.73;;;18.70;99.90;;;;;;5064410;28;20458;-86
2022/08/29 07:01:22;;;;;;;97.10;87.47;;;18.80;99.90;;;;;;5064309;28;20472;-85
2022/08/29 07:03:49;;;;;;;20.40;18.20;;;18.90;99.90;;;;;;5064168;28;20483;-86
2022/08/29 07:06:17;;;;;;;17.93;16.23;;;19.00;99.90;;;;;;5063783;28;20455;-84
2022/08/29 07:08:44;;;;;;;32.10;28.80;;;19.10;99.90;;;;;;5062784;28;20462;-85
2022/08/29 07:11:12;;;;;;;22.77;20.50;;;19.20;99.90;;;;;;5063300;28;20443;-86
2022/08/29 07:13:39;;;;;;;19.80;18.03;;;19.30;99.90;;;;;;5062843;28;20491;-85
2022/08/29 07:16:08;;;;;;;16.90;15.40;;;19.40;99.90;;;;;;5062133;28;20445;-85
2022/08/29 07:18:35;;;;;;;15.83;14.47;;;19.50;99.90;;;;;;5062910;28;20534;-84
2022/08/29 07:21:05;;;;;;;13.50;12.10;;;19.60;99.90;;;;;;5061920;28;20534;-84
2022/08/29 07:23:32;;;;;;;24.30;22.00;;;19.70;99.90;;;;;;5059719;28;20791;-85
2022/08/29 07:26:07;;;;;;;16.90;15.33;;;19.80;99.90;;;;;;5060148;28;20627;-85
2022/08/29 07:28:35;;;;;;;17.30;14.63;;;19.90;99.90;;;;;;5063405;28;20450;-86
2022/08/29 07:31:02;;;;;;;18.43;15.53;;;20.00;99.90;;;;;;5062477;28;20447;-86
2022/08/29 07:33:30;;;;;;;17.73;16.00;;;20.00;99.90;;;;;;5061892;28;20598;-87
2022/08/29 07:35:57;;;;;;;18.87;17.17;;;20.10;99.90;;;;;;5062790;28;20456;-86
2022/08/29 07:38:24;;;;;;;20.30;18.57;;;20.20;99.90;;;;;;5062076;28;20875;-86
2022/08/29 07:40:57;;;;;;;118.57;108.57;;;20.30;99.90;;;;;;5063966;28;20794;-86
2022/08/29 07:43:24;;;;;;;13.30;12.10;;;20.40;99.90;;;;;;5062025;28;20456;-84
2022/08/29 07:45:53;;;;;;;38.07;34.20;;;20.50;99.90;;;;;;5067636;28;20996;-86
2022/08/29 07:48:20;;;;;;;16.33;14.93;;;20.60;99.90;;;;;;5065248;28;20445;-86
2022/08/29 07:50:48;;;;;;;12.33;11.23;;;20.70;99.90;;;;;;5060031;28;20479;-84
2022/08/29 07:53:15;;;;;;;13.83;12.57;;;20.70;99.90;;;;;;5061883;28;20485;-83
2022/08/29 07:55:42;;;;;;;11.77;10.63;;;20.90;99.90;;;;;;5059987;28;20459;-84
2022/08/29 07:58:09;;;;;;;12.00;10.30;;;21.00;99.90;;;;;;5057493;28;20899;-84
2022/08/29 08:00:36;;;;;;;11.70;10.60;;;21.10;99.90;;;;;;5056277;28;20448;-83
2022/08/29 08:03:04;;;;;;;12.10;11.00;;;21.20;99.90;;;;;;5056971;28;20469;-83
2022/08/29 08:05:31;;;;;;;11.00;10.00;;;21.20;99.90;;;;;;5056638;28;20452;-83
2022/08/29 08:07:59;;;;;;;12.63;10.70;;;21.20;99.90;;;;;;5057269;28;20458;-84
2022/08/29 08:10:26;;;;;;;10.80;9.90;;;21.30;99.90;;;;;;5061897;28;20480;-85
2022/08/29 08:12:53;;;;;;;9.60;8.80;;;21.30;99.90;;;;;;5057603;28;20491;-84
2022/08/29 08:15:23;;;;;;;10.73;9.93;;;21.30;99.90;;;;;;5060233;28;20461;-85
2022/08/29 08:17:49;;;;;;;15.90;14.50;;;21.30;99.90;;;;;;5060707;28;20831;-85
2022/08/29 08:20:18;;;;;;;14.50;13.30;;;21.50;99.90;;;;;;5056313;28;20455;-84
2022/08/29 08:22:44;;;;;;;11.47;10.20;;;21.50;99.90;;;;;;5058241;28;20799;-84
2022/08/29 08:25:11;;;;;;;10.83;9.73;;;21.50;99.90;;;;;;5067875;28;20488;-83
2022/08/29 08:27:38;;;;;;;10.30;9.20;;;21.50;99.90;;;;;;5073150;28;20463;-83
2022/08/29 08:30:06;;;;;;;9.40;8.50;;;21.70;99.90;;;;;;5073504;28;20658;-83
2022/08/29 08:32:32;;;;;;;10.40;9.50;;;21.70;99.90;;;;;;5065979;28;20840;-84
2022/08/29 08:35:00;;;;;;;10.83;9.87;;;21.80;99.90;;;;;;5061457;28;20463;-85
2022/08/29 08:37:28;;;;;;;10.30;9.20;;;22.10;99.90;;;;;;5062667;28;20961;-85
2022/08/29 08:39:56;;;;;;;18.97;17.23;;;22.10;99.90;;;;;;5062334;28;20996;-85
2022/08/29 08:42:33;;;;;;;24.50;22.03;;;22.30;99.90;;;;;;5061041;28;20501;-84
2022/08/29 08:45:06;;;;;;;14.47;13.27;;;22.40;99.90;;;;;;5066258;28;20464;-83
2022/08/29 08:47:38;;;;;;;8.80;8.00;;;22.60;99.90;;;;;;5073237;28;20432;-83
2022/08/29 08:50:11;;;;;;;8.60;7.90;;;22.70;99.90;;;;;;5073694;28;20456;-83
2022/08/29 08:52:43;;;;;;;9.33;8.53;;;22.90;99.90;;;;;;5073421;28;20492;-84
2022/08/29 08:55:20;;;;;;;9.43;8.13;;;23.00;99.90;;;;;;5076058;28;20453;-81
2022/08/29 08:57:54;;;;;;;7.37;6.53;;;23.20;99.90;;;;;;5077945;28;20452;-82
2022/08/29 09:00:21;;;;;;;8.30;7.60;;;23.30;99.90;;;;;;5075516;28;20454;-83
2022/08/29 09:03:03;;;;;;;9.27;8.37;;;23.40;99.90;;;;;;5072939;28;20516;-84
2022/08/29 09:05:45;;;;;;;8.20;7.40;;;23.40;99.90;;;;;;5072797;28;20519;-83
2022/08/29 09:08:25;;;;;;;7.47;6.77;;;23.50;99.90;;;;;;5071788;28;20436;-83
2022/08/29 09:10:59;;;;;;;7.37;6.70;;;23.60;99.90;;;;;;5067823;28;21017;-86
2022/08/29 09:13:37;;;;;;;28.90;26.27;;;23.70;99.90;;;;;;5053779;28;20504;-87
2022/08/29 09:16:11;;;;;;;16.93;15.63;;;23.80;99.90;;;;;;5054201;28;20459;-87
2022/08/29 09:18:40;;;;;;;15.67;14.43;;;23.90;99.40;;;;;;5053504;28;20494;-86
2022/08/29 09:21:13;;;;;;;10.27;9.23;;;24.00;99.70;;;;;;5053629;28;20430;-87
2022/08/29 09:23:44;;;;;;;30.53;27.60;;;24.20;99.20;;;;;;5057124;28;20511;-85
2022/08/29 09:26:11;;;;;;;8.90;8.20;;;24.30;99.10;;;;;;5055670;28;20429;-86
2022/08/29 09:28:39;;;;;;;10.47;9.50;;;24.40;99.00;;;;;;5055581;28;20450;-85
2022/08/29 09:31:22;;;;;;;7.87;7.20;;;24.40;97.80;;;;;;5057333;28;20492;-86
2022/08/29 09:33:52;;;;;;;7.10;6.40;;;24.60;97.80;;;;;;5055213;28;20869;-86
2022/08/29 09:36:38;;;;;;;6.67;5.97;;;24.70;98.10;;;;;;5057723;28;20457;-84
2022/08/29 09:39:24;;;;;;;7.30;6.60;;;24.90;98.20;;;;;;5058018;28;20974;-86
2022/08/29 09:41:54;;;;;;;14.27;12.90;;;25.10;97.30;;;;;;5053717;28;20502;-85
2022/08/29 09:44:29;;;;;;;9.80;6.40;;;25.20;97.10;;;;;;5053520;28;20464;-85
2022/08/29 09:47:19;;;;;;;26.53;24.13;;;25.20;95.30;;;;;;5055509;28;20827;-85
2022/08/29 09:50:02;;;;;;;6.73;6.13;;;25.20;95.20;;;;;;5064214;28;20450;-84
2022/08/29 09:52:29;;;;;;;7.80;7.10;;;25.10;94.50;;;;;;5067479;28;20470;-86
2022/08/29 09:54:57;;;;;;;6.33;5.83;;;25.10;94.60;;;;;;5053720;28;20947;-85
2022/08/29 09:57:27;;;;;;;5.87;5.40;;;25.10;94.20;;;;;;5057465;28;20453;-87
2022/08/29 10:00:11;;;;;;;6.03;5.50;;;25.30;94.70;;;;;;5062155;28;20835;-85
2022/08/29 10:02:45;;;;;;;10.57;9.57;;;25.40;94.10;;;;;;5063964;28;20471;-86
2022/08/29 10:05:32;;;;;;;12.33;11.37;;;25.60;94.50;;;;;;5063018;28;20455;-86
2022/08/29 10:07:59;;;;;;;12.90;12.00;;;25.80;94.70;;;;;;5058745;28;20451;-86
2022/08/29 10:10:29;;;;;;;7.23;6.37;;;26.00;94.90;;;;;;5058414;28;20452;-86
2022/08/29 10:13:02;;;;;;;7.30;6.73;;;26.10;93.30;;;;;;5059085;28;20512;-86
2022/08/29 10:15:35;;;;;;;6.20;5.80;;;26.30;92.80;;;;;;5057018;28;20838;-86
2022/08/29 10:18:20;;;;;;;8.40;7.70;;;26.50;91.70;;;;;;5062425;28;20456;-86
2022/08/29 10:20:55;;;;;;;10.40;9.67;;;26.60;90.80;;;;;;5055189;28;20464;-87
2022/08/29 10:23:28;;;;;;;7.03;5.70;;;26.70;93.20;;;;;;5057685;28;20992;-87
2022/08/29 10:25:59;;;;;;;5.43;5.03;;;26.70;90.70;;;;;;5056888;28;20452;-86
2022/08/29 10:28:38;;;;;;;5.40;5.00;;;26.90;90.30;;;;;;5056584;28;20467;-87
2022/08/29 10:31:10;;;;;;;17.70;16.27;;;27.00;89.00;;;;;;5056751;28;20488;-87
2022/08/29 10:33:56;;;;;;;11.13;10.30;;;27.20;87.80;;;;;;5057282;28;20485;-88
2022/08/29 10:36:31;;;;;;;14.80;13.70;;;27.40;88.60;;;;;;5057129;28;20445;-86
2022/08/29 10:39:05;;;;;;;6.20;5.70;;;27.70;88.00;;;;;;5066648;28;20437;-86
2022/08/29 10:41:44;;;;;;;6.40;5.90;;;28.00;87.80;;;;;;5063519;28;20483;-86
2022/08/29 10:44:22;;;;;;;5.77;4.80;;;28.20;84.60;;;;;;5060254;28;20464;-86
2022/08/29 10:47:07;;;;;;;6.87;6.37;;;28.40;85.80;;;;;;5059322;28;20511;-86
2022/08/29 10:49:57;;;;;;;7.20;6.50;;;28.60;84.60;;;;;;5059466;28;20851;-87
2022/08/29 10:52:30;;;;;;;7.67;5.20;;;28.50;82.00;;;;;;5057414;28;20482;-87
2022/08/29 10:55:08;;;;;;;5.97;5.57;;;28.40;81.00;;;;;;5058675;28;20750;-86
2022/08/29 11:01:03;;;;;;;17.70;16.30;;;28.40;80.60;;;;;;5057305;28;20406;-86
2022/08/29 11:03:38;;;;;;;7.97;7.13;;;28.30;80.50;;;;;;5057074;28;20808;-86
2022/08/29 11:06:11;;;;;;;6.03;5.47;;;28.50;81.00;;;;;;5061412;28;20434;-84
2022/08/29 11:08:44;;;;;;;6.37;5.97;;;28.90;80.90;;;;;;5063516;28;20455;-85
2022/08/29 11:12:11;;;;;;;6.27;5.87;;;29.50;81.30;;;;;;5063170;28;20495;-85
2022/08/29 11:14:43;;;;;;;6.80;5.93;;;30.10;80.90;;;;;;5062294;28;20453;-84
2022/08/29 11:20:48;;;;;;;6.07;5.60;;;31.50;72.40;;;;;;5031214;28;20953;-85
2022/08/29 11:24:02;;;;;;;6.00;5.50;;;32.20;71.40;;;;;;5061635;28;20486;-85
2022/08/29 11:27:04;;;;;;;5.60;5.10;;;32.70;67.00;;;;;;5062100;28;20960;-85
2022/08/29 11:33:12;;;;;;;6.87;6.10;;;32.80;63.60;;;;;;4982325;28;20456;-85
2022/08/29 11:35:53;;;;;;;7.00;5.80;;;33.20;64.80;;;;;;5070878;28;20459;-85
2022/08/29 11:38:45;;;;;;;5.83;5.43;;;33.60;61.70;;;;;;5060166;28;20494;-88
2022/08/29 11:41:28;;;;;;;14.90;13.63;;;33.10;59.80;;;;;;5056262;28;20450;-86
2022/08/29 11:44:14;;;;;;;13.10;11.53;;;32.90;62.20;;;;;;5053837;28;20499;-86
2022/08/29 11:46:45;;;;;;;7.87;7.27;;;33.00;59.90;;;;;;5055948;28;20465;-86
2022/08/29 11:49:37;;;;;;;6.50;5.90;;;33.30;63.20;;;;;;5057481;28;20530;-86
2022/08/29 11:52:26;;;;;;;18.97;17.53;;;34.00;59.10;;;;;;5057724;28;20485;-85
2022/08/29 11:55:25;;;;;;;25.33;23.63;;;34.60;59.50;;;;;;5055529;28;20842;-87
2022/08/29 11:57:55;;;;;;;6.27;5.67;;;35.30;56.50;;;;;;5060579;28;20760;-85
2022/08/29 12:00:49;;;;;;;5.93;5.43;;;36.20;53.90;;;;;;5061512;28;20458;-86
2022/08/29 12:03:54;;;;;;;5.47;5.00;;;36.00;51.40;;;;;;5062109;28;20945;-85
2022/08/29 12:06:52;;;;;;;5.77;5.27;;;35.90;51.70;;;;;;5061863;28;20459;-85
2022/08/29 12:09:39;;;;;;;6.37;5.97;;;36.20;50.60;;;;;;5063747;28;20448;-85
2022/08/29 12:12:42;;;;;;;6.13;5.70;;;36.50;52.50;;;;;;5063007;28;20494;-85
2022/08/29 12:15:42;;;;;;;5.80;5.40;;;37.20;49.10;;;;;;5064568;28;20456;-85
2022/08/29 12:18:40;;;;;;;6.97;6.50;;;37.30;51.00;;;;;;5048154;28;20452;-86
2022/08/29 12:21:32;;;;;;;5.67;5.27;;;37.40;49.30;;;;;;5063978;28;20445;-86
2022/08/29 12:24:01;;;;;;;7.00;6.47;;;37.40;46.80;;;;;;5044823;28;20488;-85
2022/08/29 12:26:40;;;;;;;5.43;5.03;;;36.90;48.10;;;;;;5063347;28;20829;-85
2022/08/29 12:29:41;;;;;;;7.33;6.40;;;36.70;47.50;;;;;;5065006;28;20965;-86
2022/08/29 12:32:26;;;;;;;8.00;7.27;;;37.00;48.50;;;;;;5029750;28;20512;-85
2022/08/29 12:35:12;;;;;;;22.23;20.83;;;37.30;46.30;;;;;;5058277;28;20837;-84
2022/08/29 12:37:56;;;;;;;5.80;5.27;;;37.70;46.00;;;;;;5072357;28;20547;-84
2022/08/29 12:40:50;;;;;;;5.00;4.70;;;38.10;44.90;;;;;;5072916;28;20452;-84
2022/08/29 12:43:32;;;;;;;6.03;5.63;;;38.80;43.40;;;;;;5072312;28;21019;-84
2022/08/29 12:46:01;;;;;;;6.50;6.00;;;39.00;43.40;;;;;;5071796;28;20440;-84
2022/08/29 12:48:34;;;;;;;5.27;4.87;;;39.10;41.60;;;;;;5071962;28;20980;-84
2022/08/29 12:51:03;;;;;;;5.40;4.50;;;38.70;42.20;;;;;;5072126;28;20464;-83
2022/08/29 12:53:33;;;;;;;6.00;5.60;;;37.80;41.80;;;;;;5072629;28;20440;-84
2022/08/29 12:56:11;;;;;;;5.53;5.23;;;38.00;42.40;;;;;;5072543;28;20501;-83
2022/08/29 12:58:40;;;;;;;5.90;5.43;;;38.50;43.40;;;;;;5072416;28;20459;-83
2022/08/29 13:01:19;;;;;;;5.90;5.50;;;39.30;43.50;;;;;;5072922;28;20441;-83
2022/08/29 13:03:59;;;;;;;4.43;4.23;;;40.00;41.90;;;;;;5071869;28;20479;-84
2022/08/29 13:06:27;;;;;;;4.93;4.63;;;40.80;39.80;;;;;;5072786;28;20937;-81
2022/08/29 13:08:54;;;;;;;4.90;4.60;;;40.70;37.40;;;;;;5071790;28;20444;-81
2022/08/29 13:11:24;;;;;;;5.53;5.13;;;39.70;38.20;;;;;;5072403;28;20464;-81
2022/08/29 13:13:51;;;;;;;5.40;5.00;;;39.20;40.10;;;;;;5072767;28;20444;-84
2022/08/29 13:16:27;;;;;;;6.33;5.93;;;38.70;39.90;;;;;;5072270;28;20436;-83